메인 페이지
METAR-TAF:

METAR-TAF

공항 :

Tyler Pounds Regional Airport

Tyler, 텍사스, 미국

위도: 32-21-31N, 경도: 095-24-14W, 고도: 165m

현재 날씨관측

예보는 14분 전, 12:53시(UTC)에 발표되었습니다.
4kt
온도 17°C
습도 88%
기압 1017 hPa
시정: 12.9km
고도 9000ft 상공 구름 많음
고도 10000ft 상공 구름 많음

METAR: KTYR 061253Z 09004KT 8SM BKN090 BKN100 17/15 A3003 RMK AO2 SLP163 T01670150

시각: 08:07 (13:07 UTC)

예보

예보는 1 시간 47분 전, 11:20시(UTC)에 발표되었습니다.
예보 대상 시간: 06일 12시부터 07일 12시까지 (UTC)
3kt
시정: 10km
고도 4000ft 상공 구름 보통
일시적
06일 12시부터 06일 16시까지 (UTC)
시정: 6.4km
고도 1500ft 상공 구름 많음
박무
06일 1600시부터 (UTC)
6kt
시정: 10km
고도 5000ft 상공 흐림
07일 0200시부터 (UTC)
5kt
시정: 10km
고도 3000ft 상공 흐림
시계 내 소나기
07일 0400시부터 (UTC)
남남동7kt
시정: 10km
고도 1000ft 상공 흐림

TAF: KTYR 061120Z 0612/0712 08003KT P6SM SCT040 TEMPO 0612/0616 4SM BR BKN015 FM061600 17006KT P6SM OVC050 FM070200 18005KT P6SM VCSH OVC030 FM070400 16007KT P6SM OVC010

4,000개 이상의 공항 관측 자료 및 예보 (METAR 및 TAF 보고).

지도상에서 검색 가능한 기상관측소가 노란 점과 빨간 점으로 표시되어 있습니다.

기상관측소 명을 보려면 표시 위로 마우스를 이동하세요.

날씨 관측과 예보를 보려면 클릭하세요.

지도 변경 : 확대하려면 엑스 표시가 있는 녹색 버튼, 축소하려면 빼기 표시가 있는 녹색 버튼, 다음 페이지의 지도를 보려면 녹색 화살표를 클릭하세요.


METAR-TAF: